Time;durP1;ratioP1;P1;durP2;ratioP2;P2;SDS_P1;SDS_P2;PMS_P1;PMS_P2;Temp;Humidity;BMP_temperature;BMP_pressure;BME280_temperature;BME280_humidity;BME280_pressure;Samples;Min_cycle;Max_cycle;Signal;HPM_P1;HPM_P2
2022/10/30 00:04:18;;;;;;;23.23;9.40;;;;;;;2.85;91.69;101137.16;10454999;28;20051;-67
2022/10/30 00:09:19;;;;;;;15.23;9.00;;;;;;;2.62;91.66;101101.88;10453135;28;20056;-67
2022/10/30 00:14:20;;;;;;;28.33;10.18;;;;;;;2.81;92.15;101119.06;10455255;28;20404;-67
2022/10/30 00:19:21;;;;;;;24.73;8.43;;;;;;;2.46;91.39;101056.63;10454662;28;20094;-67
2022/10/30 00:24:22;;;;;;;20.23;9.02;;;;;;;2.63;91.73;101079.97;10454816;28;20374;-67
2022/10/30 00:29:23;;;;;;;12.80;9.77;;;;;;;2.82;91.33;101112.91;10454800;28;20041;-67
2022/10/30 00:34:24;;;;;;;12.70;9.15;;;;;;;2.67;91.48;101118.19;10453706;28;20061;-67
2022/10/30 00:39:25;;;;;;;15.05;8.50;;;;;;;2.15;91.55;101040.19;10452500;28;20048;-68
2022/10/30 00:44:48;;;;;;;16.27;9.40;;;;;;;2.16;91.91;101041.06;10454054;28;20475;-67
2022/10/30 00:49:52;;;;;;;17.02;9.60;;;;;;;2.45;91.74;101100.34;10454620;28;20110;-67
2022/10/30 00:54:55;;;;;;;34.65;10.25;;;;;;;2.18;92.01;101062.75;10453634;28;20044;-66
2022/10/30 00:59:56;;;;;;;21.00;9.90;;;;;;;2.55;91.67;101102.41;10454107;28;20052;-67
2022/10/30 01:04:58;;;;;;;20.05;9.25;;;;;;;2.07;91.33;101036.41;10453479;28;20056;-67
2022/10/30 01:09:59;;;;;;;21.55;9.27;;;;;;;2.44;91.71;101097.81;10454029;28;20048;-67
2022/10/30 01:15:01;;;;;;;17.85;8.90;;;;;;;2.22;91.37;101080.00;10454694;28;20045;-67
2022/10/30 01:20:39;;;;;;;21.25;10.00;;;;;;;2.37;92.10;101093.91;10453789;28;20408;-67
2022/10/30 01:25:49;;;;;;;19.98;10.10;;;;;;;2.34;92.70;101094.09;10453335;28;20069;-67
2022/10/30 01:31:27;;;;;;;35.65;10.25;;;;;;;2.37;92.64;101093.91;10453530;28;20099;-67
2022/10/30 01:36:48;;;;;;;14.27;9.40;;;;;;;2.25;91.55;101085.88;10453397;28;20419;-67
2022/10/30 01:41:49;;;;;;;19.20;10.25;;;;;;;2.23;91.68;101095.59;10452064;28;20040;-66
2022/10/30 01:46:59;;;;;;;17.13;10.07;;;;;;;2.23;92.73;101087.75;10460818;28;20057;-67
2022/10/30 01:52:11;;;;;;;14.70;9.88;;;;;;;2.23;92.18;101089.53;10461378;28;20083;-67
2022/10/30 01:57:24;;;;;;;14.65;9.65;;;;;;;2.20;92.59;101077.44;10460251;28;20045;-67
2022/10/30 02:02:25;;;;;;;16.58;9.73;;;;;;;2.09;92.11;101079.88;10460283;28;20072;-67
2022/10/30 02:07:26;;;;;;;16.00;9.45;;;;;;;2.05;92.30;101073.16;10460061;28;20072;-67
2022/10/30 02:12:27;;;;;;;15.23;9.95;;;;;;;1.99;91.76;101048.19;10459961;28;20044;-67
2022/10/30 02:17:28;;;;;;;27.50;10.57;;;;;;;2.14;91.89;101056.88;10460001;28;20040;-67
2022/10/30 02:22:30;;;;;;;21.98;10.05;;;;;;;2.28;92.07;101067.31;10459919;28;20037;-67
2022/10/30 02:27:30;;;;;;;16.85;9.82;;;;;;;2.30;91.91;101054.09;10459191;28;20071;-67
2022/10/30 02:32:31;;;;;;;16.85;8.25;;;;;;;1.27;91.52;100903.38;10459054;28;20110;-67
2022/10/30 02:37:34;;;;;;;18.05;9.27;;;;;;;2.12;91.40;101063.13;10459251;28;20132;-66
2022/10/30 02:42:35;;;;;;;21.63;9.75;;;;;;;2.12;92.03;101063.13;10458576;28;20412;-67
2022/10/30 02:47:36;;;;;;;43.13;10.55;;;;;;;2.06;91.99;101038.16;10459202;28;20045;-66
2022/10/30 02:52:37;;;;;;;26.88;10.05;;;;;;;2.20;91.66;101055.63;10457913;28;20127;-66
2022/10/30 02:57:37;;;;;;;56.17;10.65;;;;;;;1.92;91.30;101023.31;10458116;28;20045;-67
2022/10/30 03:02:38;;;;;;;30.38;10.35;;;;;;;2.08;91.80;101057.25;10458761;28;20424;-67
2022/10/30 03:07:39;;;;;;;27.75;10.07;;;;;;;2.05;91.57;101058.28;10472918;28;20079;-67
2022/10/30 03:12:40;;;;;;;28.70;11.52;;;;;;;1.77;92.19;101003.31;10457689;28;20066;-66
2022/10/30 03:17:40;;;;;;;35.30;11.13;;;;;;;2.00;92.24;101042.00;10457522;28;20044;-66
2022/10/30 03:22:41;;;;;;;41.15;11.10;;;;;;;1.92;92.23;101019.84;10454917;28;20037;-67
2022/10/30 03:27:42;;;;;;;24.88;10.10;;;;;;;1.95;92.62;101036.22;10426156;28;20045;-68
2022/10/30 03:32:43;;;;;;;37.83;11.00;;;;;;;2.00;92.29;101025.44;10430414;28;20140;-67
2022/10/30 03:37:44;;;;;;;40.45;11.38;;;;;;;1.96;92.58;100995.97;10440722;28;20051;-66
2022/10/30 03:42:44;;;;;;;37.17;10.52;;;;;;;1.96;92.14;101003.81;10453458;28;20489;-67
2022/10/30 03:47:45;;;;;;;37.17;11.02;;;;;;;1.93;92.03;100985.69;10447540;28;20161;-67
2022/10/30 03:52:46;;;;;;;25.48;10.00;;;;;;;1.73;92.47;100945.00;10454301;28;20497;-67
2022/10/30 03:57:47;;;;;;;47.97;9.25;;;;;;;1.90;92.72;100930.84;10453857;28;20033;-67
2022/10/30 04:02:50;;;;;;;51.70;11.82;;;;;;;2.26;92.88;100926.78;10453777;28;20094;-67
2022/10/30 04:08:03;;;;;;;34.70;12.13;;;;;;;2.69;92.77;100910.81;10455093;28;20488;-67
2022/10/30 04:13:06;;;;;;;34.05;10.73;;;;;;;3.60;93.34;100985.06;10455630;28;20554;-67
2022/10/30 04:18:10;;;;;;;37.47;11.60;;;;;;;3.33;92.92;100845.19;10450491;28;20045;-68
2022/10/30 04:23:17;;;;;;;32.78;9.80;;;;;;;4.28;91.14;100904.00;10446005;28;20509;-67
2022/10/30 04:28:20;;;;;;;25.48;10.82;;;;;;;5.00;90.91;100969.63;10452991;28;20090;-67
2022/10/30 04:33:20;;;;;;;21.15;9.95;;;;;;;5.36;89.39;100975.66;10451691;28;20065;-67
2022/10/30 04:38:21;;;;;;;23.35;10.60;;;;;;;5.46;89.19;100977.44;10429733;28;20107;-67
2022/10/30 04:43:22;;;;;;;25.88;11.30;;;;;;;5.41;88.87;100936.59;10422613;28;20041;-67
2022/10/30 04:48:23;;;;;;;21.90;11.23;;;;;;;5.85;89.21;100983.19;10469702;28;20094;-67
2022/10/30 04:53:24;;;;;;;23.90;12.45;;;;;;;6.06;90.10;100977.19;10469087;28;20036;-67
2022/10/30 04:58:25;;;;;;;20.83;11.40;;;;;;;6.33;89.81;100974.13;10453620;28;20048;-68
2022/10/30 05:03:26;;;;;;;17.05;11.00;;;;;;;6.59;89.93;100972.00;10453511;28;20048;-67
2022/10/30 05:08:27;;;;;;;16.42;11.77;;;;;;;6.80;90.13;100982.56;10453374;28;20045;-68
2022/10/30 05:13:28;;;;;;;16.33;10.05;;;;;;;6.62;90.36;100871.41;10453680;28;20127;-67
2022/10/30 05:18:28;;;;;;;15.02;10.20;;;;;;;7.17;89.93;100900.19;10468309;28;20120;-68
2022/10/30 05:23:29;;;;;;;27.42;11.30;;;;;;;7.74;89.19;100944.50;10454743;28;20047;-68
2022/10/30 05:28:30;;;;;;;26.92;10.13;;;;;;;8.07;88.95;100949.59;10449753;28;20049;-67
2022/10/30 05:33:31;;;;;;;22.45;10.88;;;;;;;8.23;88.52;100918.16;10449234;28;20078;-68
2022/10/30 05:38:32;;;;;;;15.65;10.48;;;;;;;8.65;88.01;100944.38;10458685;28;20057;-68
2022/10/30 05:43:33;;;;;;;17.75;9.90;;;;;;;8.10;87.43;100796.69;10461291;28;20408;-69
2022/10/30 05:48:33;;;;;;;12.75;9.23;;;;;;;9.17;87.06;100922.78;10442097;28;20589;-68
2022/10/30 05:53:34;;;;;;;20.85;9.75;;;;;;;9.08;86.62;100869.66;10425469;28;20041;-68
2022/10/30 05:58:35;;;;;;;12.50;9.13;;;;;;;9.75;86.14;100918.06;10459488;28;20512;-69
2022/10/30 06:03:36;;;;;;;12.10;8.52;;;;;;;9.96;85.49;100916.94;10459788;28;20504;-69
2022/10/30 06:08:37;;;;;;;10.00;7.93;;;;;;;10.15;84.93;100905.38;10435253;28;20500;-69
2022/10/30 06:13:39;;;;;;;13.90;7.82;;;;;;;9.81;84.00;100813.13;10443834;28;20041;-69
2022/10/30 06:18:39;;;;;;;10.77;7.00;;;;;;;10.50;83.51;100880.66;10439493;28;20041;-70
2022/10/30 06:23:40;;;;;;;10.63;6.97;;;;;;;10.88;81.92;100894.50;10427426;28;20082;-70
2022/10/30 06:28:41;;;;;;;9.10;6.43;;;;;;;11.20;80.59;100886.72;10446040;28;20084;-69
2022/10/30 06:33:42;;;;;;;21.30;8.60;;;;;;;10.95;79.34;100792.72;10435438;28;20061;-69
2022/10/30 06:38:43;;;;;;;12.82;6.43;;;;;;;11.42;77.51;100833.94;10440944;28;20042;-69
2022/10/30 06:43:44;;;;;;;14.27;6.10;;;;;;;11.15;76.01;100757.88;10431289;28;20391;-69
2022/10/30 06:48:45;;;;;;;7.68;4.63;;;;;;;11.99;73.84;100854.56;10429390;28;20049;-68
2022/10/30 06:53:46;;;;;;;9.25;5.10;;;;;;;11.71;72.74;100759.00;10456632;28;20048;-68
2022/10/30 06:58:46;;;;;;;7.25;4.63;;;;;;;12.19;71.46;100786.66;10446343;28;20037;-69
2022/10/30 07:03:47;;;;;;;18.15;5.22;;;;;;;12.58;70.41;100804.59;10441327;28;20091;-70
2022/10/30 07:08:48;;;;;;;7.25;5.43;;;;;;;12.55;69.73;100757.78;10456008;28;20049;-70
2022/10/30 07:13:48;;;;;;;8.48;5.30;;;;;;;13.21;68.85;100817.03;10452646;28;20053;-69
2022/10/30 07:18:50;;;;;;;10.40;5.70;;;;;;;13.28;68.21;100803.03;10449232;28;20493;-69
2022/10/30 07:23:51;;;;;;;8.45;6.70;;;;;;;13.47;67.50;100794.63;10439101;28;20098;-69
2022/10/30 07:28:52;;;;;;;8.10;6.00;;;;;;;13.83;66.70;100797.53;10427804;28;20117;-69
2022/10/30 07:33:52;;;;;;;10.18;6.47;;;;;;;14.00;66.55;100784.91;10416484;28;20136;-68
2022/10/30 07:38:53;;;;;;;8.27;5.32;;;;;;;14.06;65.30;100765.47;10415697;28;20098;-68
2022/10/30 07:43:54;;;;;;;7.80;5.45;;;;;;;14.30;65.28;100759.06;10429076;28;20074;-69
2022/10/30 07:48:55;;;;;;;11.90;5.20;;;;;;;14.45;64.28;100740.38;10449365;28;20049;-69
2022/10/30 07:53:56;;;;;;;9.82;5.10;;;;;;;14.65;63.69;100729.16;10456482;28;20044;-68
2022/10/30 07:58:57;;;;;;;10.73;5.95;;;;;;;14.90;63.61;100717.16;10455945;28;20037;-68
2022/10/30 08:03:57;;;;;;;11.15;5.30;;;;;;;15.10;62.88;100708.53;10454460;28;20047;-67
2022/10/30 08:08:58;;;;;;;12.98;4.97;;;;;;;14.84;62.35;100637.66;10449682;28;20485;-68
2022/10/30 08:13:59;;;;;;;10.23;4.97;;;;;;;14.84;62.29;100602.91;10450549;28;20045;-68
2022/10/30 08:19:00;;;;;;;8.35;4.88;;;;;;;15.47;61.54;100688.75;10454575;28;20045;-68
2022/10/30 08:24:01;;;;;;;12.63;6.03;;;;;;;15.57;61.59;100681.22;10454381;28;20424;-68
2022/10/30 08:29:02;;;;;;;7.75;4.93;;;;;;;15.57;61.56;100643.72;10450786;28;20131;-68
2022/10/30 08:34:04;;;;;;;5.80;3.22;;;;;;;15.85;59.18;100662.50;10446124;28;20084;-68
2022/10/30 08:39:05;;;;;;;5.28;2.80;;;;;;;15.70;58.33;100648.38;10441956;28;20420;-67
2022/10/30 08:44:06;;;;;;;4.25;2.80;;;;;;;15.81;58.44;100641.66;10433966;28;20053;-67
2022/10/30 08:49:07;;;;;;;4.78;2.50;;;;;;;15.93;57.43;100638.25;10449048;28;20050;-68
2022/10/30 08:54:09;;;;;;;8.80;2.75;;;;;;;15.82;56.60;100616.53;10452156;28;20493;-68
2022/10/30 08:59:10;;;;;;;6.95;2.47;;;;;;;16.12;56.93;100625.16;10454159;28;20517;-68
2022/10/30 09:04:10;;;;;;;7.68;2.15;;;;;;;15.68;56.16;100535.28;10447900;28;20052;-67
2022/10/30 09:09:12;;;;;;;3.90;1.90;;;;;;;16.29;55.97;100609.59;10452975;28;20444;-68
2022/10/30 09:14:12;;;;;;;5.70;2.20;;;;;;;16.03;56.15;100540.59;10465583;28;20041;-67
2022/10/30 09:19:13;;;;;;;3.58;1.88;;;;;;;16.14;55.88;100543.53;10418615;28;20041;-69
2022/10/30 09:24:14;;;;;;;4.43;2.10;;;;;;;16.52;56.39;100587.84;10420239;28;20184;-67
2022/10/30 09:29:15;;;;;;;3.90;2.00;;;;;;;16.56;55.91;100586.41;10453275;28;20055;-67
2022/10/30 09:34:16;;;;;;;4.10;1.70;;;;;;;16.63;55.63;100576.50;10454040;28;20057;-67
2022/10/30 09:39:17;;;;;;;4.60;1.90;;;;;;;16.01;55.63;100478.38;10453052;28;20086;-67
2022/10/30 09:44:39;;;;;;;3.60;1.80;;;;;;;16.71;54.32;100570.16;10452255;28;20449;-67
2022/10/30 09:50:10;;;;;;;6.43;1.92;;;;;;;16.73;54.21;100560.88;10411729;28;20065;-67
2022/10/30 09:55:29;;;;;;;3.75;1.75;;;;;;;16.73;53.29;100552.81;10418457;28;20037;-67
2022/10/30 10:00:43;;;;;;;8.38;1.50;;;;;;;16.75;54.66;100529.31;10406740;28;20862;-68
2022/10/30 10:05:50;;;;;;;3.80;1.90;;;;;;;16.89;54.25;100536.34;10411934;28;20103;-67
2022/10/30 10:11:02;;;;;;;6.78;2.05;;;;;;;16.50;54.58;100440.53;10412820;28;20494;-66
2022/10/30 10:16:27;;;;;;;5.70;2.22;;;;;;;16.73;53.92;100455.44;10426992;28;20037;-67
2022/10/30 10:21:32;;;;;;;7.35;2.13;;;;;;;17.14;55.01;100532.25;10413847;28;20068;-69
2022/10/30 10:26:51;;;;;;;;;;;;;;;17.30;55.42;100511.19;10438477;28;20120;-70
2022/10/30 10:32:38;;;;;;;8.45;2.10;;;;;;;17.19;55.23;100503.75;10444944;28;19927;-68
2022/10/30 10:37:57;;;;;;;5.38;1.35;;;;;;;17.14;54.19;100498.19;10452033;28;20098;-68
2022/10/30 10:43:23;;;;;;;4.22;1.48;;;;;;;16.68;54.03;100405.06;10459610;28;20401;-67
2022/10/30 10:49:19;;;;;;;2.45;1.50;;;;;;;17.17;53.69;100459.34;10457946;28;20487;-68
2022/10/30 10:54:27;;;;;;;2.63;1.50;;;;;;;17.22;53.94;100467.59;10453275;28;20095;-67
2022/10/30 10:59:40;;;;;;;2.20;1.50;;;;;;;16.79;53.33;100400.97;10456801;28;20056;-68
2022/10/30 11:04:45;;;;;;;4.82;1.38;;;;;;;16.78;54.30;100404.69;10458815;28;20053;-68
2022/10/30 11:09:54;;;;;;;5.60;1.52;;;;;;;17.11;53.92;100469.06;10458160;28;20509;-68
2022/10/30 11:14:57;;;;;;;2.83;1.48;;;;;;;17.00;54.60;100457.09;10456218;28;20127;-70
2022/10/30 11:20:10;;;;;;;3.03;1.30;;;;;;;16.92;54.18;100451.94;10456639;28;20439;-72
2022/10/30 11:25:23;;;;;;;3.90;2.47;;;;;;;17.06;54.65;100445.53;10456649;28;20448;-69
2022/10/30 11:30:27;;;;;;;7.03;2.55;;;;;;;16.61;54.55;100361.34;10456376;28;20306;-69
2022/10/30 11:35:28;;;;;;;21.00;11.10;;;;;;;16.99;54.57;100409.84;10454699;28;20103;-69
2022/10/30 11:40:29;;;;;;;6.00;2.33;;;;;;;17.14;54.84;100432.91;10456979;28;20099;-69
2022/10/30 11:45:39;;;;;;;2.40;1.48;;;;;;;17.08;53.90;100423.84;10447792;28;20048;-69
2022/10/30 11:50:46;;;;;;;2.90;1.65;;;;;;;16.84;54.08;100399.31;10431615;28;20440;-68
2022/10/30 11:55:50;;;;;;;1.98;1.00;;;;;;;17.02;54.90;100416.63;10430263;28;20098;-68
2022/10/30 12:01:12;;;;;;;3.10;1.60;;;;;;;16.58;54.43;100337.63;10426524;28;20775;-68
2022/10/30 12:06:30;;;;;;;5.97;1.40;;;;;;;16.93;54.63;100407.13;10425548;28;20454;-69
2022/10/30 12:11:34;;;;;;;1.83;1.17;;;;;;;16.98;54.50;100415.41;10444470;28;20203;-70
2022/10/30 12:16:43;;;;;;;3.65;1.30;;;;;;;16.92;54.13;100417.06;10428446;28;20405;-70
2022/10/30 12:21:56;;;;;;;8.55;1.77;;;;;;;16.95;53.65;100419.31;10429683;28;20497;-68
2022/10/30 12:27:06;;;;;;;4.00;1.45;;;;;;;16.82;54.39;100409.44;10430815;28;20115;-68
2022/10/30 12:32:16;;;;;;;2.72;1.48;;;;;;;16.75;53.84;100415.78;10432025;28;20536;-69
2022/10/30 12:37:27;;;;;;;4.40;1.70;;;;;;;16.21;54.61;100337.19;10448434;28;20051;-68
2022/10/30 12:42:31;;;;;;;11.88;1.92;;;;;;;16.69;55.33;100435.38;10430730;28;20445;-70
2022/10/30 12:47:31;;;;;;;4.40;1.95;;;;;;;16.59;55.89;100430.44;10443669;28;20037;-70
2022/10/30 12:52:58;;;;;;;16.73;2.60;;;;;;;16.51;56.22;100430.63;10428084;28;20045;-68
2022/10/30 12:58:23;;;;;;;6.95;2.53;;;;;;;15.90;56.38;100360.03;10415776;28;20051;-69
2022/10/30 13:03:40;;;;;;;6.28;2.30;;;;;;;16.24;57.01;100425.22;10428571;28;20049;-69
2022/10/30 13:09:12;;;;;;;4.43;2.20;;;;;;;16.17;58.05;100435.13;10426518;28;20069;-68
2022/10/30 13:14:18;;;;;;;5.65;2.10;;;;;;;15.31;58.52;100320.44;10427377;28;20555;-68
2022/10/30 13:19:19;;;;;;;8.35;2.17;;;;;;;15.79;59.01;100421.38;10428581;28;20044;-71
2022/10/30 13:24:39;;;;;;;6.10;2.72;;;;;;;15.67;59.24;100438.00;10445739;28;20284;-69
2022/10/30 13:30:00;;;;;;;3.38;1.83;;;;;;;15.48;59.64;100430.69;10449847;28;20080;-68
2022/10/30 13:35:19;;;;;;;12.15;3.08;;;;;;;15.27;61.19;100429.75;10453619;28;20438;-68
2022/10/30 13:40:28;;;;;;;5.75;2.17;;;;;;;14.68;61.48;100362.47;10453746;28;20044;-69
2022/10/30 13:45:35;;;;;;;6.60;3.60;;;;;;;14.79;62.63;100418.91;10414381;28;20045;-69
2022/10/30 13:51:02;;;;;;;6.80;3.05;;;;;;;14.25;63.54;100355.31;10418277;28;20047;-68
2022/10/30 13:56:03;;;;;;;7.22;2.25;;;;;;;14.27;63.57;100400.53;10446648;28;20040;-68
2022/10/30 14:01:26;;;;;;;14.40;2.42;;;;;;;14.23;65.24;100428.66;10433167;28;20052;-67
2022/10/30 14:06:38;;;;;;;40.63;3.08;;;;;;;13.95;65.01;100429.38;10429232;28;20052;-67
2022/10/30 14:11:39;;;;;;;5.03;1.90;;;;;;;13.81;65.62;100427.56;10420402;28;20059;-68
2022/10/30 14:16:44;;;;;;;8.20;2.17;;;;;;;13.52;66.96;100407.91;10434116;28;20140;-68
2022/10/30 14:21:55;;;;;;;14.95;2.67;;;;;;;13.50;67.93;100425.13;10456626;28;20044;-68
2022/10/30 14:27:02;;;;;;;19.42;3.58;;;;;;;13.40;68.21;100425.38;10417926;28;20114;-68
2022/10/30 14:32:14;;;;;;;16.67;3.20;;;;;;;13.35;69.28;100425.13;10418530;28;20064;-69
2022/10/30 14:37:21;;;;;;;7.68;3.72;;;;;;;12.82;68.08;100349.66;10418805;28;20041;-69
2022/10/30 14:42:28;;;;;;;12.45;5.80;;;;;;;13.38;69.61;100427.44;10418344;28;20044;-70
2022/10/30 14:47:48;;;;;;;13.63;6.00;;;;;;;13.00;69.96;100358.94;10416000;28;20072;-68
2022/10/30 14:53:13;;;;;;;15.15;7.20;;;;;;;13.41;69.53;100419.06;10416817;28;20401;-68
2022/10/30 14:58:22;;;;;;;13.30;6.07;;;;;;;13.47;69.15;100427.13;10451135;28;20052;-71
2022/10/30 15:04:01;;;;;;;11.98;5.00;;;;;;;13.55;70.25;100434.25;10423849;28;20121;-68
2022/10/30 15:09:32;;;;;;;8.10;3.92;;;;;;;13.45;70.29;100429.16;10416258;28;20045;-68
2022/10/30 15:14:45;;;;;;;8.13;4.30;;;;;;;13.28;70.31;100432.19;10426496;28;20521;-69
2022/10/30 15:19:46;;;;;;;10.23;5.75;;;;;;;13.22;70.21;100429.25;10419013;28;20409;-68
2022/10/30 15:24:50;;;;;;;8.13;4.78;;;;;;;12.54;70.82;100344.94;10414485;28;20041;-68
2022/10/30 15:29:57;;;;;;;12.20;6.70;;;;;;;13.03;71.57;100440.41;10451094;28;20079;-69
2022/10/30 15:35:04;;;;;;;12.85;7.68;;;;;;;12.93;71.85;100434.53;10456722;28;20056;-69
2022/10/30 15:40:18;;;;;;;14.10;8.55;;;;;;;12.96;72.96;100436.84;10451010;28;20051;-70
2022/10/30 15:45:32;;;;;;;24.33;8.15;;;;;;;12.92;73.16;100435.53;10455956;28;20135;-68
2022/10/30 15:50:35;;;;;;;19.55;8.43;;;;;;;12.45;72.50;100351.34;10424611;28;20136;-68
2022/10/30 15:55:35;;;;;;;13.65;8.48;;;;;;;12.83;72.26;100426.75;10459504;28;20401;-69
2022/10/30 16:00:37;;;;;;;14.13;8.27;;;;;;;12.78;73.06;100430.00;10419753;28;20052;-70
2022/10/30 16:05:38;;;;;;;13.60;8.43;;;;;;;12.75;73.50;100426.84;10425284;28;20041;-73
2022/10/30 16:10:42;;;;;;;17.30;8.43;;;;;;;12.68;74.21;100439.22;10414573;28;20056;-69
2022/10/30 16:15:46;;;;;;;17.30;7.55;;;;;;;12.56;74.30;100417.50;10414339;28;20509;-70
2022/10/30 16:20:52;;;;;;;14.20;6.22;;;;;;;12.62;74.92;100434.63;10414257;28;20046;-69
2022/10/30 16:25:55;;;;;;;12.38;4.93;;;;;;;12.52;74.53;100419.69;10413469;28;20041;-67
2022/10/30 16:31:00;;;;;;;21.08;6.75;;;;;;;12.43;75.16;100404.78;10413040;28;20064;-70
2022/10/30 16:36:03;;;;;;;15.88;5.93;;;;;;;12.33;74.93;100407.69;10414508;28;20049;-69
2022/10/30 16:41:12;;;;;;;17.70;5.93;;;;;;;12.27;75.33;100402.25;10417198;28;20124;-69
2022/10/30 16:46:13;;;;;;;10.55;5.15;;;;;;;12.29;75.26;100402.91;10438030;28;20052;-70
2022/10/30 16:51:16;;;;;;;12.70;5.38;;;;;;;12.28;76.11;100409.25;10423713;28;20519;-69
2022/10/30 16:56:24;;;;;;;13.37;5.37;;;;;;;12.25;76.80;100394.44;10436373;28;20040;-70
2022/10/30 17:01:28;;;;;;;15.23;5.43;;;;;;;11.83;76.65;100321.16;10443547;28;20037;-73
2022/10/30 17:06:38;;;;;;;;;;;;;;;12.44;76.39;100398.44;10454371;28;20036;-70
2022/10/30 17:12:00;;;;;;;9.13;5.68;;;;;;;12.05;76.09;100366.63;10436464;28;19917;-70
2022/10/30 17:17:01;;;;;;;14.55;7.28;;;;;;;12.16;76.42;100387.50;10438367;28;20505;-71
2022/10/30 17:22:06;;;;;;;68.07;24.08;;;;;;;12.29;76.77;100416.22;10436262;28;20041;-69
2022/10/30 17:27:34;;;;;;;58.42;21.42;;;;;;;12.19;78.87;100405.81;10420739;28;20136;-68
2022/10/30 17:32:44;;;;;;;37.50;17.65;;;;;;;12.19;79.40;100399.66;10431187;28;20055;-69
2022/10/30 17:37:45;;;;;;;26.08;12.48;;;;;;;11.71;78.06;100335.84;10436624;28;20045;-69
2022/10/30 17:42:48;;;;;;;24.85;11.15;;;;;;;11.99;79.36;100397.44;10442603;28;20049;-70
2022/10/30 17:47:49;;;;;;;26.08;9.85;;;;;;;11.98;79.89;100402.94;10434639;28;20037;-69
2022/10/30 17:52:50;;;;;;;17.00;7.80;;;;;;;11.23;80.14;100289.91;10435928;28;20493;-69
2022/10/30 17:57:51;;;;;;;30.65;12.48;;;;;;;11.38;80.95;100338.69;10434375;28;20509;-72
2022/10/30 18:02:52;;;;;;;34.38;13.48;;;;;;;11.70;81.08;100390.09;10442499;28;20049;-70
2022/10/30 18:07:53;;;;;;;44.35;19.42;;;;;;;11.61;81.13;100375.19;10418302;28;20187;-72
2022/10/30 18:12:53;;;;;;;27.98;12.20;;;;;;;11.28;81.95;100321.31;10446480;28;20041;-72
2022/10/30 18:17:54;;;;;;;22.77;10.23;;;;;;;11.21;83.32;100307.84;10459530;28;20080;-71
2022/10/30 18:22:56;;;;;;;16.50;9.35;;;;;;;11.01;84.13;100280.88;10446864;28;20048;-71
2022/10/30 18:27:57;;;;;;;12.18;8.13;;;;;;;11.35;84.58;100352.34;10456818;28;20140;-71
2022/10/30 18:32:57;;;;;;;15.05;8.48;;;;;;;11.25;84.59;100335.78;10458103;28;20143;-72
2022/10/30 18:37:58;;;;;;;12.60;6.80;;;;;;;10.89;85.15;100280.41;10456394;28;20037;-71
2022/10/30 18:43:00;;;;;;;13.13;8.35;;;;;;;11.34;85.77;100360.50;10457170;28;20432;-71
2022/10/30 18:48:01;;;;;;;15.50;10.77;;;;;;;11.45;86.06;100377.91;10457011;28;20052;-72
2022/10/30 18:53:03;;;;;;;18.42;11.60;;;;;;;11.41;87.09;100367.59;10454829;28;20504;-71
2022/10/30 18:58:06;;;;;;;17.42;10.45;;;;;;;11.38;86.63;100365.28;10451965;28;20037;-72
2022/10/30 19:03:07;;;;;;;22.30;13.27;;;;;;;11.08;86.77;100337.66;10448829;28;20037;-71
2022/10/30 19:08:08;;;;;;;21.10;11.95;;;;;;;11.14;87.05;100368.03;10455598;28;20045;-71
2022/10/30 19:13:15;;;;;;;19.50;10.35;;;;;;;10.87;89.52;100330.22;10471176;28;20078;-72
2022/10/30 19:18:16;;;;;;;14.90;8.00;;;;;;;10.01;87.80;100195.44;10455708;28;20102;-71
2022/10/30 19:23:20;;;;;;;12.45;6.47;;;;;;;10.99;88.88;100348.50;10454899;28;20033;-71
2022/10/30 19:28:21;;;;;;;10.35;6.68;;;;;;;11.06;88.10;100344.13;10454575;28;20068;-71
2022/10/30 19:33:23;;;;;;;10.68;5.63;;;;;;;11.11;88.79;100350.59;10454322;28;20060;-71
2022/10/30 19:38:24;;;;;;;9.82;5.75;;;;;;;11.22;88.13;100343.25;10448513;28;20049;-71
2022/10/30 19:43:25;;;;;;;8.13;4.65;;;;;;;11.40;87.44;100351.84;10455773;28;20050;-71
2022/10/30 19:48:26;;;;;;;10.38;4.13;;;;;;;11.56;86.97;100345.59;10453600;28;20040;-71
2022/10/30 19:53:26;;;;;;;7.88;4.65;;;;;;;11.11;86.51;100246.09;10449225;28;20405;-71
2022/10/30 19:58:27;;;;;;;11.77;4.70;;;;;;;11.59;86.87;100334.59;10442471;28;20047;-71
2022/10/30 20:03:28;;;;;;;6.38;3.75;;;;;;;11.59;86.67;100351.38;10452268;28;20124;-71
2022/10/30 20:08:29;;;;;;;9.98;4.30;;;;;;;11.50;86.87;100327.66;10424536;28;20076;-71
2022/10/30 20:13:31;;;;;;;12.18;4.05;;;;;;;11.53;87.40;100345.94;10423035;28;20029;-71
2022/10/30 20:18:34;;;;;;;8.52;3.70;;;;;;;11.21;87.33;100270.63;10414231;28;20041;-71
2022/10/30 20:23:36;;;;;;;6.63;3.55;;;;;;;11.50;87.50;100322.34;10414805;28;20053;-71
2022/10/30 20:28:41;;;;;;;6.95;3.30;;;;;;;11.69;88.54;100329.88;10413647;28;20414;-71
2022/10/30 20:33:42;;;;;;;5.10;3.33;;;;;;;11.65;86.87;100321.41;10414233;28;20060;-71
2022/10/30 20:38:43;;;;;;;6.25;3.25;;;;;;;10.96;86.87;100171.56;10413681;28;20048;-71
2022/10/30 20:43:43;;;;;;;10.05;4.00;;;;;;;11.81;86.99;100304.50;10413865;28;20034;-71
2022/10/30 20:48:44;;;;;;;4.60;3.30;;;;;;;12.05;87.48;100340.00;10413143;28;20383;-71
2022/10/30 20:53:45;;;;;;;26.67;3.22;;;;;;;12.11;86.68;100320.63;10413442;28;20042;-71
2022/10/30 20:58:46;;;;;;;7.00;2.30;;;;;;;11.68;86.42;100221.78;10417842;28;20064;-68
2022/10/30 21:03:46;;;;;;;3.80;2.03;;;;;;;12.45;85.34;100316.72;10447406;28;20084;-69
2022/10/30 21:08:47;;;;;;;2.90;1.70;;;;;;;12.61;83.95;100315.72;10450870;28;20523;-69
2022/10/30 21:13:48;;;;;;;3.28;1.83;;;;;;;12.21;83.30;100228.03;10451668;28;20127;-70
2022/10/30 21:18:53;;;;;;;2.80;1.90;;;;;;;12.76;83.59;100322.69;10432819;28;20045;-70
2022/10/30 21:23:54;;;;;;;5.60;1.80;;;;;;;12.31;83.63;100255.22;10441986;28;20561;-69
2022/10/30 21:28:55;;;;;;;1.92;1.42;;;;;;;12.69;83.79;100310.31;10446060;28;20045;-70
2022/10/30 21:33:56;;;;;;;3.72;1.50;;;;;;;12.61;83.82;100307.72;10438946;28;20068;-69
2022/10/30 21:38:58;;;;;;;2.42;1.48;;;;;;;12.65;84.50;100309.00;10412936;28;20551;-70
2022/10/30 21:43:59;;;;;;;2.83;1.85;;;;;;;12.62;84.88;100304.84;10412258;28;20056;-70
2022/10/30 21:49:04;;;;;;;3.05;1.55;;;;;;;12.65;85.07;100323.16;10412609;28;20049;-69
2022/10/30 21:54:05;;;;;;;2.90;1.90;;;;;;;12.53;85.32;100303.28;10411445;28;20041;-70
2022/10/30 21:59:09;;;;;;;3.28;1.77;;;;;;;12.52;86.08;100314.97;10412243;28;20405;-69
2022/10/30 22:04:10;;;;;;;3.60;1.85;;;;;;;12.49;86.37;100315.31;10418315;28;20045;-70
2022/10/30 22:09:14;;;;;;;4.80;2.05;;;;;;;12.55;86.94;100322.59;10423837;28;20045;-70
2022/10/30 22:14:15;;;;;;;6.28;2.03;;;;;;;12.49;87.09;100313.47;10424832;28;20502;-70
2022/10/30 22:19:16;;;;;;;4.45;2.10;;;;;;;12.38;87.54;100316.56;10418129;28;20041;-70
2022/10/30 22:24:17;;;;;;;5.53;2.10;;;;;;;11.78;88.37;100216.22;10418670;28;20046;-70
2022/10/30 22:29:17;;;;;;;3.63;2.25;;;;;;;11.99;88.84;100258.16;10417945;28;20489;-69
2022/10/30 22:34:18;;;;;;;3.67;1.95;;;;;;;12.25;89.25;100303.06;10418971;28;20053;-70
2022/10/30 22:39:19;;;;;;;2.80;1.80;;;;;;;12.08;88.80;100263.28;10417534;28;20037;-69
2022/10/30 22:44:21;;;;;;;3.45;1.50;;;;;;;12.32;88.66;100288.84;10418123;28;20159;-69
2022/10/30 22:49:22;;;;;;;2.78;1.50;;;;;;;12.32;89.17;100294.19;10417228;28;20049;-69
2022/10/30 22:54:23;;;;;;;4.20;1.77;;;;;;;11.77;89.70;100218.06;10417680;28;20041;-70
2022/10/30 22:59:24;;;;;;;4.72;1.70;;;;;;;11.72;90.13;100196.47;10432990;28;20048;-70
2022/10/30 23:04:25;;;;;;;3.65;1.73;;;;;;;11.82;91.49;100222.84;10417566;28;20033;-70
2022/10/30 23:09:25;;;;;;;2.42;1.60;;;;;;;11.93;91.93;100249.06;10416994;28;20045;-70
2022/10/30 23:14:26;;;;;;;4.63;2.10;;;;;;;11.91;93.38;100252.94;10415440;28;20493;-70
2022/10/30 23:19:28;;;;;;;3.50;2.25;;;;;;;11.85;94.59;100241.16;10416626;28;20041;-70